Time;durP1;ratioP1;P1;durP2;ratioP2;P2;SDS_P1;SDS_P2;PMS_P1;PMS_P2;Temp;Humidity;BMP_temperature;BMP_pressure;BME280_temperature;BME280_humidity;BME280_pressure;Samples;Min_cycle;Max_cycle;Signal;HPM_P1;HPM_P2
2021/06/30 00:01:29;;;;;;;3.10;2.80;;;;;;;;;;5135759;27;20191;-66
2021/06/30 00:04:02;;;;;;;3.40;2.67;;;;;;;;;;5135550;27;20240;-66
2021/06/30 00:06:35;;;;;;;3.17;2.72;;;;;;;;;;5136013;27;20799;-65
2021/06/30 00:09:08;;;;;;;4.20;2.60;;;;;;;;;;5135999;27;20203;-66
2021/06/30 00:11:41;;;;;;;3.83;2.53;;;;;;;;;;5135839;27;20678;-65
2021/06/30 00:14:16;;;;;;;2.75;2.53;;;;;;;;;;5135624;27;20630;-66
2021/06/30 00:16:49;;;;;;;4.03;2.65;;;;;;;;;;5135109;27;20646;-65
2021/06/30 00:19:23;;;;;;;2.90;2.60;;;;;;;;;;5135903;27;20209;-66
2021/06/30 00:21:56;;;;;;;3.38;2.60;;;;;;;;;;5135589;27;20630;-66
2021/06/30 00:24:29;;;;;;;2.80;2.60;;;;;;;;;;5135485;27;20638;-66
2021/06/30 00:27:02;;;;;;;3.20;2.92;;;;;;;;;;5135265;27;20248;-66
2021/06/30 00:29:37;;;;;;;3.60;3.25;;;;;;;;;;5135053;27;20207;-65
2021/06/30 00:32:10;;;;;;;3.72;3.08;;;;;;;;;;5135243;27;20268;-65
2021/06/30 00:34:43;;;;;;;3.90;3.50;;;;;;;;;;5134946;27;20218;-65
2021/06/30 00:37:16;;;;;;;3.92;3.58;;;;;;;;;;5135531;27;20328;-65
2021/06/30 00:39:49;;;;;;;4.10;3.53;;;;;;;;;;5130948;27;20271;-65
2021/06/30 00:42:22;;;;;;;3.85;3.55;;;;;;;;;;5114600;28;20187;-66
2021/06/30 00:44:57;;;;;;;3.97;3.67;;;;;;;;;;5114252;27;20215;-66
2021/06/30 00:47:30;;;;;;;4.25;3.90;;;;;;;;;;5114539;28;20183;-65
2021/06/30 00:50:04;;;;;;;4.28;3.97;;;;;;;;;;5125292;27;20262;-65
2021/06/30 00:52:37;;;;;;;4.40;4.05;;;;;;;;;;5135231;27;20214;-66
2021/06/30 00:55:11;;;;;;;4.78;4.10;;;;;;;;;;5135131;27;20207;-66
2021/06/30 00:57:44;;;;;;;4.85;4.45;;;;;;;;;;5135086;27;20187;-66
2021/06/30 01:00:19;;;;;;;4.60;4.20;;;;;;;;;;5134539;27;20592;-67
2021/06/30 01:02:52;;;;;;;4.88;4.47;;;;;;;;;;5134470;27;20602;-66
2021/06/30 01:05:26;;;;;;;4.78;4.30;;;;;;;;;;5134805;27;20221;-66
2021/06/30 01:07:59;;;;;;;4.10;3.80;;;;;;;;;;5134555;27;20214;-66
2021/06/30 01:10:32;;;;;;;7.18;3.75;;;;;;;;;;5134497;27;20215;-66
2021/06/30 01:13:06;;;;;;;3.72;3.42;;;;;;;;;;5134515;27;20236;-66
2021/06/30 01:15:49;;;;;;;3.75;3.30;;;;;;;;;;5134236;27;20255;-65
2021/06/30 01:18:22;;;;;;;3.78;3.45;;;;;;;;;;5134258;27;20183;-66
2021/06/30 01:20:55;;;;;;;3.70;3.38;;;;;;;;;;5134631;27;20266;-66
2021/06/30 01:23:31;;;;;;;3.78;3.22;;;;;;;;;;5134534;27;20237;-66
2021/06/30 01:26:04;;;;;;;3.35;3.10;;;;;;;;;;5134448;27;20646;-66
2021/06/30 01:28:38;;;;;;;4.50;3.72;;;;;;;;;;5134485;27;20183;-64
2021/06/30 01:31:11;;;;;;;4.10;3.70;;;;;;;;;;5133741;27;20630;-66
2021/06/30 01:33:44;;;;;;;3.67;3.38;;;;;;;;;;5134319;27;20315;-66
2021/06/30 01:36:17;;;;;;;3.80;3.40;;;;;;;;;;5134341;27;20229;-66
2021/06/30 01:38:52;;;;;;;3.33;3.08;;;;;;;;;;5134505;27;20218;-65
2021/06/30 01:41:25;;;;;;;4.15;3.15;;;;;;;;;;5134146;27;20638;-66
2021/06/30 01:43:58;;;;;;;3.60;3.28;;;;;;;;;;5133862;27;20218;-66
2021/06/30 01:46:31;;;;;;;4.13;3.75;;;;;;;;;;5133077;27;20591;-66
2021/06/30 01:49:05;;;;;;;3.70;3.08;;;;;;;;;;5133711;27;20240;-66
2021/06/30 01:51:39;;;;;;;3.30;3.10;;;;;;;;;;5134075;27;20202;-65
2021/06/30 01:54:15;;;;;;;3.38;3.00;;;;;;;;;;5133490;27;20274;-65
2021/06/30 01:56:49;;;;;;;3.60;3.30;;;;;;;;;;5134000;27;20674;-66
2021/06/30 01:59:22;;;;;;;3.58;3.20;;;;;;;;;;5133568;27;20247;-66
2021/06/30 02:01:55;;;;;;;3.17;2.90;;;;;;;;;;5133972;27;20268;-66
2021/06/30 02:04:27;;;;;;;3.00;2.80;;;;;;;;;;5140820;27;20190;-66
2021/06/30 02:07:00;;;;;;;5.35;3.00;;;;;;;;;;5133609;27;20244;-65
2021/06/30 02:09:35;;;;;;;3.03;2.72;;;;;;;;;;5133741;27;20295;-65
2021/06/30 02:12:08;;;;;;;3.10;2.90;;;;;;;;;;5133780;27;20186;-66
2021/06/30 02:14:41;;;;;;;6.10;3.30;;;;;;;;;;5133270;27;20269;-66
2021/06/30 02:17:17;;;;;;;3.35;3.15;;;;;;;;;;5133696;27;20211;-67
2021/06/30 02:19:51;;;;;;;3.45;3.13;;;;;;;;;;5133657;27;20221;-66
2021/06/30 02:22:24;;;;;;;3.45;3.22;;;;;;;;;;5133632;27;20214;-66
2021/06/30 02:24:58;;;;;;;4.03;3.60;;;;;;;;;;5133588;27;20267;-66
2021/06/30 02:27:32;;;;;;;3.47;3.17;;;;;;;;;;5133716;27;20186;-66
2021/06/30 02:30:06;;;;;;;3.70;3.40;;;;;;;;;;5133391;27;20290;-66
2021/06/30 02:32:39;;;;;;;3.20;2.92;;;;;;;;;;5133376;27;20210;-65
2021/06/30 02:35:14;;;;;;;3.60;3.30;;;;;;;;;;5133359;27;20262;-67
2021/06/30 02:37:47;;;;;;;3.78;3.47;;;;;;;;;;5133050;27;20248;-66
2021/06/30 02:40:22;;;;;;;3.60;3.33;;;;;;;;;;5124662;27;20658;-66
2021/06/30 02:42:56;;;;;;;3.67;3.38;;;;;;;;;;5112701;28;20475;-66
2021/06/30 02:45:29;;;;;;;4.63;4.20;;;;;;;;;;5112498;28;20226;-64
2021/06/30 02:48:02;;;;;;;4.43;4.13;;;;;;;;;;5112501;28;20191;-66
2021/06/30 02:50:35;;;;;;;4.93;4.53;;;;;;;;;;5128083;27;20262;-66
2021/06/30 02:53:08;;;;;;;5.00;4.60;;;;;;;;;;5133108;27;20274;-65
2021/06/30 02:55:42;;;;;;;4.90;4.50;;;;;;;;;;5133157;28;20278;-68
2021/06/30 02:58:15;;;;;;;5.10;4.70;;;;;;;;;;5138833;27;20246;-66
2021/06/30 03:00:49;;;;;;;4.70;4.30;;;;;;;;;;5139836;27;20265;-66
2021/06/30 03:03:22;;;;;;;4.22;3.83;;;;;;;;;;5139466;27;20187;-65
2021/06/30 03:05:55;;;;;;;3.88;3.53;;;;;;;;;;5139586;27;20187;-66
2021/06/30 03:08:28;;;;;;;3.47;3.17;;;;;;;;;;5139806;27;20648;-66
2021/06/30 03:11:02;;;;;;;3.40;3.20;;;;;;;;;;5139924;27;20282;-65
2021/06/30 03:13:35;;;;;;;4.15;3.75;;;;;;;;;;5139596;27;20269;-66
2021/06/30 03:16:09;;;;;;;3.38;3.08;;;;;;;;;;5139615;27;20590;-66
2021/06/30 03:18:42;;;;;;;3.22;2.95;;;;;;;;;;5139345;27;20212;-66
2021/06/30 03:21:15;;;;;;;4.82;2.95;;;;;;;;;;5139513;27;20232;-65
2021/06/30 03:23:48;;;;;;;3.22;2.92;;;;;;;;;;5139932;27;20206;-67
2021/06/30 03:26:22;;;;;;;3.20;2.60;;;;;;;;;;5137546;27;20247;-67
2021/06/30 03:28:56;;;;;;;2.75;2.55;;;;;;;;;;5139003;27;20190;-66
2021/06/30 03:31:29;;;;;;;2.60;2.40;;;;;;;;;;5139879;27;20203;-66
2021/06/30 03:34:02;;;;;;;2.45;2.25;;;;;;;;;;5140238;27;20552;-66
2021/06/30 03:36:36;;;;;;;4.30;2.33;;;;;;;;;;5139849;27;20191;-66
2021/06/30 03:39:09;;;;;;;2.50;2.20;;;;;;;;;;5139374;27;20187;-66
2021/06/30 03:41:43;;;;;;;2.42;2.22;;;;;;;;;;5139125;27;20279;-67
2021/06/30 03:44:16;;;;;;;2.60;2.40;;;;;;;;;;5139142;27;20278;-65
2021/06/30 03:46:50;;;;;;;2.40;2.05;;;;;;;;;;5139490;27;20226;-67
2021/06/30 03:49:24;;;;;;;2.28;2.08;;;;;;;;;;5139012;27;20234;-67
2021/06/30 03:51:57;;;;;;;3.20;1.73;;;;;;;;;;5139327;27;20206;-66
2021/06/30 03:54:31;;;;;;;2.95;2.22;;;;;;;;;;5139121;27;20657;-66
2021/06/30 03:57:05;;;;;;;2.92;2.25;;;;;;;;;;5139140;27;20186;-65
2021/06/30 03:59:38;;;;;;;4.72;2.28;;;;;;;;;;5139457;27;20232;-66
2021/06/30 04:02:12;;;;;;;3.05;2.10;;;;;;;;;;5138830;27;20633;-68
2021/06/30 04:04:45;;;;;;;2.40;2.20;;;;;;;;;;5139226;27;20270;-65
2021/06/30 04:07:18;;;;;;;3.50;2.28;;;;;;;;;;5139202;27;20210;-65
2021/06/30 04:09:51;;;;;;;3.85;2.00;;;;;;;;;;5135681;27;20362;-65
2021/06/30 04:12:26;;;;;;;2.20;2.00;;;;;;;;;;5135760;27;20187;-66
2021/06/30 04:14:59;;;;;;;3.47;1.80;;;;;;;;;;5135668;27;20281;-65
2021/06/30 04:17:34;;;;;;;2.60;2.08;;;;;;;;;;5135720;27;20241;-66
2021/06/30 04:20:08;;;;;;;4.35;2.22;;;;;;;;;;5135702;27;20191;-65
2021/06/30 04:22:41;;;;;;;2.30;2.08;;;;;;;;;;5135602;27;20621;-66
2021/06/30 04:25:14;;;;;;;3.33;2.10;;;;;;;;;;5135303;27;20912;-66
2021/06/30 04:27:49;;;;;;;2.63;2.35;;;;;;;;;;5135093;27;20179;-66
2021/06/30 04:30:22;;;;;;;3.33;2.20;;;;;;;;;;5135127;27;20207;-66
2021/06/30 04:32:55;;;;;;;2.92;2.40;;;;;;;;;;5135136;27;20278;-64
2021/06/30 04:35:28;;;;;;;2.60;2.40;;;;;;;;;;5135499;27;20185;-66
2021/06/30 04:38:01;;;;;;;2.78;2.58;;;;;;;;;;5135949;27;20219;-66
2021/06/30 04:40:34;;;;;;;4.00;2.50;;;;;;;;;;5135596;27;20228;-66
2021/06/30 04:43:09;;;;;;;3.38;2.35;;;;;;;;;;5135987;27;20218;-66
2021/06/30 04:45:42;;;;;;;2.83;2.30;;;;;;;;;;5135807;27;20231;-66
2021/06/30 04:48:15;;;;;;;3.83;2.80;;;;;;;;;;5135835;27;20271;-66
2021/06/30 04:50:48;;;;;;;3.72;2.60;;;;;;;;;;5135310;27;20266;-67
2021/06/30 04:53:22;;;;;;;3.40;3.10;;;;;;;;;;5135873;27;20590;-66
2021/06/30 04:55:55;;;;;;;3.60;2.58;;;;;;;;;;5135424;27;20198;-66
2021/06/30 04:58:29;;;;;;;6.75;2.70;;;;;;;;;;5135474;27;20634;-66
2021/06/30 05:01:02;;;;;;;4.45;2.78;;;;;;;;;;5135498;27;20255;-65
2021/06/30 05:03:35;;;;;;;3.10;2.72;;;;;;;;;;5134895;27;20623;-66
2021/06/30 05:06:09;;;;;;;3.67;2.97;;;;;;;;;;5135407;27;20611;-66
2021/06/30 05:08:42;;;;;;;4.13;2.90;;;;;;;;;;5135215;27;20195;-66
2021/06/30 05:11:15;;;;;;;3.15;2.85;;;;;;;;;;5134884;27;20313;-66
2021/06/30 05:13:49;;;;;;;4.68;3.22;;;;;;;;;;5135276;27;20293;-66
2021/06/30 05:16:24;;;;;;;3.70;3.40;;;;;;;;;;5135009;27;20190;-67
2021/06/30 05:18:57;;;;;;;4.13;3.72;;;;;;;;;;5134700;27;20220;-65
2021/06/30 05:21:30;;;;;;;4.43;3.65;;;;;;;;;;5133540;27;20186;-67
2021/06/30 05:24:03;;;;;;;5.75;3.90;;;;;;;;;;5135171;27;20214;-66
2021/06/30 05:26:36;;;;;;;4.55;3.92;;;;;;;;;;5134899;27;20187;-67
2021/06/30 05:29:11;;;;;;;6.28;4.20;;;;;;;;;;5134990;27;20183;-67
2021/06/30 05:31:44;;;;;;;4.63;3.85;;;;;;;;;;5134929;27;20245;-66
2021/06/30 05:34:17;;;;;;;5.45;4.32;;;;;;;;;;5134867;27;20567;-66
2021/06/30 05:36:52;;;;;;;4.68;4.28;;;;;;;;;;5135064;27;20220;-66
2021/06/30 05:39:25;;;;;;;6.03;4.78;;;;;;;;;;5133956;27;20239;-65
2021/06/30 05:41:58;;;;;;;4.93;4.53;;;;;;;;;;5114166;28;20214;-67
2021/06/30 05:44:32;;;;;;;7.13;4.97;;;;;;;;;;5114058;28;20188;-66
2021/06/30 05:47:05;;;;;;;5.82;5.20;;;;;;;;;;5114080;28;20275;-65
2021/06/30 05:49:39;;;;;;;7.80;5.97;;;;;;;;;;5121113;27;20231;-68
2021/06/30 05:52:12;;;;;;;6.78;6.18;;;;;;;;;;5134799;27;20278;-66
2021/06/30 05:54:45;;;;;;;8.02;6.30;;;;;;;;;;5134386;27;20607;-67
2021/06/30 05:57:18;;;;;;;7.43;6.57;;;;;;;;;;5134332;27;20280;-67
2021/06/30 05:59:53;;;;;;;6.40;5.80;;;;;;;;;;5134430;27;20191;-67
2021/06/30 06:02:26;;;;;;;7.72;5.60;;;;;;;;;;5134132;27;20629;-68
2021/06/30 06:04:59;;;;;;;6.80;6.13;;;;;;;;;;5132892;27;20658;-64
2021/06/30 06:07:32;;;;;;;7.07;6.28;;;;;;;;;;5130990;27;20187;-63
2021/06/30 06:10:06;;;;;;;8.38;6.28;;;;;;;;;;5131108;27;20183;-64
2021/06/30 06:12:39;;;;;;;9.05;6.15;;;;;;;;;;5131261;27;20230;-64
2021/06/30 06:15:14;;;;;;;8.80;6.63;;;;;;;;;;5130981;27;20187;-64
2021/06/30 06:17:47;;;;;;;8.02;6.20;;;;;;;;;;5131475;27;21266;-64
2021/06/30 06:20:20;;;;;;;6.93;6.15;;;;;;;;;;5121824;27;20199;-64
2021/06/30 06:22:54;;;;;;;7.10;6.40;;;;;;;;;;5110833;28;20207;-65
2021/06/30 06:25:27;;;;;;;6.97;5.85;;;;;;;;;;5109686;28;20194;-65
2021/06/30 06:28:01;;;;;;;7.38;6.68;;;;;;;;;;5110548;28;20229;-68
2021/06/30 06:30:35;;;;;;;6.93;5.70;;;;;;;;;;5110207;28;20184;-68
2021/06/30 06:33:08;;;;;;;8.57;6.60;;;;;;;;;;5109638;28;20237;-69
2021/06/30 06:35:43;;;;;;;6.65;6.00;;;;;;;;;;5126981;27;20317;-69
2021/06/30 06:38:16;;;;;;;6.95;6.32;;;;;;;;;;5130612;27;20194;-69
2021/06/30 06:40:49;;;;;;;8.38;6.60;;;;;;;;;;5130258;27;20719;-70
2021/06/30 06:43:22;;;;;;;7.38;6.68;;;;;;;;;;5130964;27;20187;-69
2021/06/30 06:45:57;;;;;;;8.00;6.80;;;;;;;;;;5130387;27;20203;-68
2021/06/30 06:48:30;;;;;;;7.28;6.35;;;;;;;;;;5130482;27;20190;-68
2021/06/30 06:51:03;;;;;;;8.90;6.47;;;;;;;;;;5130233;27;20230;-67
2021/06/30 06:53:36;;;;;;;8.05;6.05;;;;;;;;;;5130617;27;20263;-67
2021/06/30 06:56:12;;;;;;;8.13;6.57;;;;;;;;;;5130419;28;20211;-67
2021/06/30 06:58:45;;;;;;;8.27;7.05;;;;;;;;;;5130657;28;20267;-68
2021/06/30 07:01:19;;;;;;;7.70;6.90;;;;;;;;;;5130296;28;20266;-67
2021/06/30 07:03:52;;;;;;;8.45;7.63;;;;;;;;;;5130111;28;20593;-67
2021/06/30 07:06:26;;;;;;;9.02;7.82;;;;;;;;;;5130201;28;20265;-68
2021/06/30 07:08:59;;;;;;;9.32;8.32;;;;;;;;;;5129987;28;20235;-67
2021/06/30 07:11:32;;;;;;;10.35;9.23;;;;;;;;;;5129934;28;20243;-63
2021/06/30 07:14:02;;;;;;;10.75;8.45;;;;;;;;;;5137449;27;20186;-63
2021/06/30 07:16:37;;;;;;;11.38;8.15;;;;;;;;;;5130164;28;20191;-63
2021/06/30 07:19:10;;;;;;;9.02;7.95;;;;;;;;;;5129827;28;20212;-69
2021/06/30 07:21:43;;;;;;;9.23;8.32;;;;;;;;;;5130456;28;20629;-73
2021/06/30 07:24:16;;;;;;;8.77;7.70;;;;;;;;;;5129937;28;20224;-69
2021/06/30 07:26:50;;;;;;;8.15;7.35;;;;;;;;;;5130127;28;20266;-70
2021/06/30 07:29:24;;;;;;;7.90;7.07;;;;;;;;;;5127320;28;20201;-67
2021/06/30 07:31:58;;;;;;;9.45;6.97;;;;;;;;;;5129794;28;20202;-68
2021/06/30 07:34:31;;;;;;;7.30;6.60;;;;;;;;;;5129785;28;20240;-64
2021/06/30 07:37:05;;;;;;;8.63;7.82;;;;;;;;;;5130134;28;20202;-64
2021/06/30 07:39:38;;;;;;;8.93;6.53;;;;;;;;;;5130192;28;20186;-63
2021/06/30 07:42:11;;;;;;;6.50;5.90;;;;;;;;;;5129716;28;20179;-63
2021/06/30 07:44:45;;;;;;;8.27;6.28;;;;;;;;;;5131793;27;20229;-64
2021/06/30 07:47:15;;;;;;;6.20;5.60;;;;;;;;;;5133848;27;20585;-68
2021/06/30 07:49:43;;;;;;;6.32;5.72;;;;;;;;;;5133668;27;20230;-67
2021/06/30 07:52:11;;;;;;;6.38;5.40;;;;;;;;;;5133810;27;20233;-68
2021/06/30 07:54:40;;;;;;;6.35;5.75;;;;;;;;;;5133883;27;20218;-64
2021/06/30 07:57:08;;;;;;;8.15;5.53;;;;;;;;;;5133688;27;20302;-62
2021/06/30 07:59:36;;;;;;;5.82;5.35;;;;;;;;;;5133840;27;20281;-68
2021/06/30 08:02:04;;;;;;;6.13;5.53;;;;;;;;;;5134425;27;20205;-67
2021/06/30 08:04:34;;;;;;;7.20;5.60;;;;;;;;;;5140926;27;20242;-66
2021/06/30 08:07:02;;;;;;;6.38;5.28;;;;;;;;;;5140670;27;20230;-65
2021/06/30 08:09:31;;;;;;;6.53;5.97;;;;;;;;;;5136037;27;20301;-73
2021/06/30 08:12:01;;;;;;;6.00;5.43;;;;;;;;;;5133349;27;20230;-66
2021/06/30 08:14:29;;;;;;;6.03;5.40;;;;;;;;;;5133434;27;20197;-69
2021/06/30 08:17:01;;;;;;;6.72;5.50;;;;;;;;;;5133565;27;20187;-69
2021/06/30 08:19:29;;;;;;;6.68;6.07;;;;;;;;;;5133234;27;20203;-69
2021/06/30 08:21:59;;;;;;;6.70;6.00;;;;;;;;;;5133137;27;20206;-68
2021/06/30 08:24:28;;;;;;;6.85;6.28;;;;;;;;;;5133246;27;20750;-68
2021/06/30 08:26:56;;;;;;;7.28;6.13;;;;;;;;;;5132410;27;20294;-69
2021/06/30 08:29:25;;;;;;;7.78;6.18;;;;;;;;;;5132689;27;20218;-69
2021/06/30 08:31:57;;;;;;;6.65;6.00;;;;;;;;;;5132979;27;20763;-66
2021/06/30 08:34:25;;;;;;;6.97;6.15;;;;;;;;;;5132561;27;20218;-65
2021/06/30 08:36:58;;;;;;;6.82;6.13;;;;;;;;;;5132636;27;20728;-62
2021/06/30 08:39:28;;;;;;;7.18;6.20;;;;;;;;;;5133071;27;20179;-62
2021/06/30 08:41:56;;;;;;;7.13;6.47;;;;;;;;;;5132049;27;20692;-61
2021/06/30 08:44:25;;;;;;;8.60;6.82;;;;;;;;;;5118865;27;20203;-68
2021/06/30 08:46:55;;;;;;;7.35;5.63;;;;;;;;;;5111967;28;20298;-67
2021/06/30 08:49:26;;;;;;;7.35;5.78;;;;;;;;;;5117368;27;20234;-66
2021/06/30 08:51:55;;;;;;;6.13;5.30;;;;;;;;;;5132915;27;20278;-65
2021/06/30 08:54:24;;;;;;;7.00;5.45;;;;;;;;;;5132336;27;20218;-68
2021/06/30 08:56:54;;;;;;;8.68;5.53;;;;;;;;;;5132182;27;20583;-63
2021/06/30 08:59:23;;;;;;;6.15;4.50;;;;;;;;;;5131948;27;20763;-62
2021/06/30 09:01:51;;;;;;;6.93;4.82;;;;;;;;;;5132443;27;20277;-63
2021/06/30 09:04:19;;;;;;;5.22;4.35;;;;;;;;;;5132361;27;20198;-63
2021/06/30 09:06:48;;;;;;;5.10;4.65;;;;;;;;;;5132393;27;20220;-63
2021/06/30 09:09:16;;;;;;;4.80;4.25;;;;;;;;;;5132341;27;20574;-63
2021/06/30 09:11:53;;;;;;;4.57;4.18;;;;;;;;;;5132203;27;20289;-62
2021/06/30 09:14:24;;;;;;;4.60;4.20;;;;;;;;;;5132201;27;20297;-66
2021/06/30 09:16:56;;;;;;;4.68;4.05;;;;;;;;;;5132085;27;20816;-64
2021/06/30 09:19:46;;;;;;;4.18;3.83;;;;;;;;;;5132070;27;20183;-64
2021/06/30 09:22:14;;;;;;;4.25;3.85;;;;;;;;;;5132381;27;20183;-72
2021/06/30 09:24:42;;;;;;;4.10;3.70;;;;;;;;;;5132090;27;20297;-67
2021/06/30 09:27:10;;;;;;;3.55;3.25;;;;;;;;;;5132007;27;20199;-68
2021/06/30 09:29:41;;;;;;;4.03;3.70;;;;;;;;;;5131507;27;20571;-67
2021/06/30 09:32:10;;;;;;;3.92;3.63;;;;;;;;;;5131817;27;20233;-68
2021/06/30 09:34:39;;;;;;;4.55;3.58;;;;;;;;;;5131691;27;20573;-69
2021/06/30 09:37:08;;;;;;;4.78;3.70;;;;;;;;;;5131656;27;20207;-68
2021/06/30 09:39:38;;;;;;;4.20;3.30;;;;;;;;;;5131805;27;20293;-67
2021/06/30 09:42:07;;;;;;;5.20;3.65;;;;;;;;;;5131574;27;20238;-67
2021/06/30 09:44:35;;;;;;;5.82;3.58;;;;;;;;;;5131502;27;20209;-67
2021/06/30 09:47:05;;;;;;;4.95;3.60;;;;;;;;;;5131365;27;20293;-68
2021/06/30 09:49:36;;;;;;;3.95;3.22;;;;;;;;;;5131169;27;20230;-69
2021/06/30 09:52:06;;;;;;;4.78;3.40;;;;;;;;;;5131683;27;20183;-66
2021/06/30 09:54:35;;;;;;;5.18;3.72;;;;;;;;;;5131184;27;20914;-68
2021/06/30 09:57:07;;;;;;;4.03;3.65;;;;;;;;;;5130757;27;20213;-65
2021/06/30 09:59:37;;;;;;;5.55;3.88;;;;;;;;;;5130772;27;20183;-64
2021/06/30 10:02:08;;;;;;;5.60;3.60;;;;;;;;;;5131279;27;20265;-64
2021/06/30 10:04:37;;;;;;;4.65;3.50;;;;;;;;;;5130741;27;20206;-69
2021/06/30 10:07:08;;;;;;;4.72;3.97;;;;;;;;;;5130492;27;20199;-69
2021/06/30 10:09:36;;;;;;;4.32;3.95;;;;;;;;;;5131221;27;20186;-69
2021/06/30 10:12:09;;;;;;;4.35;3.53;;;;;;;;;;5130875;27;20191;-68
2021/06/30 10:14:38;;;;;;;4.05;3.28;;;;;;;;;;5130828;27;20692;-69
2021/06/30 10:17:08;;;;;;;3.63;3.33;;;;;;;;;;5131075;27;20203;-69
2021/06/30 10:19:37;;;;;;;3.92;3.28;;;;;;;;;;5130468;27;20190;-67
2021/06/30 10:22:12;;;;;;;6.10;3.38;;;;;;;;;;5130957;27;20193;-67
2021/06/30 10:24:40;;;;;;;3.47;3.08;;;;;;;;;;5130957;27;20282;-64
2021/06/30 10:27:14;;;;;;;3.38;2.97;;;;;;;;;;5129970;27;20179;-66
2021/06/30 10:29:44;;;;;;;3.53;3.22;;;;;;;;;;5130407;27;20206;-65
2021/06/30 10:32:14;;;;;;;5.55;3.55;;;;;;;;;;5130829;27;20198;-66
2021/06/30 10:34:43;;;;;;;3.78;3.47;;;;;;;;;;5130450;27;20203;-66
2021/06/30 10:37:19;;;;;;;4.18;3.63;;;;;;;;;;5129932;27;21148;-65
2021/06/30 10:39:48;;;;;;;5.55;3.60;;;;;;;;;;5127576;27;20187;-66
2021/06/30 10:42:18;;;;;;;5.78;4.05;;;;;;;;;;5129655;27;20289;-66
2021/06/30 10:44:47;;;;;;;4.70;3.50;;;;;;;;;;5128950;27;20286;-65
2021/06/30 10:47:34;;;;;;;3.63;3.33;;;;;;;;;;5127479;27;20191;-65
2021/06/30 10:50:22;;;;;;;4.03;3.60;;;;;;;;;;5129759;27;20670;-66
2021/06/30 10:52:51;;;;;;;3.50;3.10;;;;;;;;;;5130200;27;20199;-66
2021/06/30 10:55:35;;;;;;;3.90;3.47;;;;;;;;;;5130297;27;21005;-65
2021/06/30 10:58:16;;;;;;;3.47;3.15;;;;;;;;;;5111535;28;20570;-65
2021/06/30 11:00:45;;;;;;;3.92;2.78;;;;;;;;;;5130856;28;20182;-66
2021/06/30 11:03:25;;;;;;;5.13;3.17;;;;;;;;;;5130587;28;20203;-65
2021/06/30 11:05:54;;;;;;;3.45;3.13;;;;;;;;;;5131538;28;20185;-65
2021/06/30 11:08:49;;;;;;;3.83;3.10;;;;;;;;;;5130826;28;20297;-65
2021/06/30 11:11:18;;;;;;;4.47;3.20;;;;;;;;;;5051018;28;20282;-67
2021/06/30 11:13:53;;;;;;;4.68;2.97;;;;;;;;;;5122279;28;20206;-64
2021/06/30 11:16:41;;;;;;;3.83;2.80;;;;;;;;;;5130544;28;20216;-66
2021/06/30 11:19:30;;;;;;;3.03;2.60;;;;;;;;;;5133574;27;20202;-66
2021/06/30 11:21:59;;;;;;;2.53;2.25;;;;;;;;;;5134013;27;20198;-66
2021/06/30 11:24:47;;;;;;;2.25;2.05;;;;;;;;;;5135277;27;20199;-65
2021/06/30 11:27:36;;;;;;;2.65;2.05;;;;;;;;;;5135062;27;20217;-66
2021/06/30 11:30:05;;;;;;;4.60;2.20;;;;;;;;;;5134235;27;20206;-65
2021/06/30 11:32:48;;;;;;;3.10;1.98;;;;;;;;;;5134330;27;20199;-65
2021/06/30 11:35:28;;;;;;;2.88;1.77;;;;;;;;;;5132125;27;20258;-65
2021/06/30 11:37:58;;;;;;;6.30;1.90;;;;;;;;;;5134013;27;20221;-66
2021/06/30 11:40:30;;;;;;;2.92;1.90;;;;;;;;;;5134371;27;20210;-63
2021/06/30 11:43:01;;;;;;;2.65;1.70;;;;;;;;;;5134715;27;20289;-64
2021/06/30 11:45:29;;;;;;;3.22;1.88;;;;;;;;;;5134944;27;20564;-64
2021/06/30 11:47:59;;;;;;;3.65;1.75;;;;;;;;;;5134573;27;20198;-65
2021/06/30 11:50:30;;;;;;;2.35;1.70;;;;;;;;;;5134397;27;20710;-67
2021/06/30 11:52:59;;;;;;;1.63;1.52;;;;;;;;;;5134290;27;20274;-65
2021/06/30 11:55:28;;;;;;;2.17;1.77;;;;;;;;;;5119844;27;20563;-65
2021/06/30 11:57:58;;;;;;;1.95;1.60;;;;;;;;;;5113441;28;20195;-65
2021/06/30 12:00:28;;;;;;;1.75;1.52;;;;;;;;;;5113074;28;20184;-69
2021/06/30 12:02:56;;;;;;;1.85;1.35;;;;;;;;;;5113022;28;20687;-66
2021/06/30 12:05:28;;;;;;;1.85;1.60;;;;;;;;;;5113120;28;20196;-66
2021/06/30 12:07:58;;;;;;;3.58;1.70;;;;;;;;;;5113406;28;20620;-67
2021/06/30 12:10:29;;;;;;;2.67;1.48;;;;;;;;;;5113187;28;20190;-66
2021/06/30 12:12:57;;;;;;;1.60;1.50;;;;;;;;;;5112765;28;20636;-62
2021/06/30 12:15:26;;;;;;;1.45;1.35;;;;;;;;;;5113165;28;20230;-64
2021/06/30 12:17:55;;;;;;;2.35;1.50;;;;;;;;;;5112498;28;20688;-68
2021/06/30 12:20:24;;;;;;;1.60;1.50;;;;;;;;;;5113174;28;20202;-64
2021/06/30 12:22:52;;;;;;;2.33;1.52;;;;;;;;;;5113134;28;20545;-65
2021/06/30 12:25:27;;;;;;;3.65;1.67;;;;;;;;;;5112802;28;20723;-65
2021/06/30 12:27:56;;;;;;;2.38;1.85;;;;;;;;;;5115214;28;20179;-66
2021/06/30 12:30:25;;;;;;;1.75;1.65;;;;;;;;;;5114241;28;20281;-68
2021/06/30 12:32:54;;;;;;;2.13;1.90;;;;;;;;;;5112845;28;20206;-66
2021/06/30 12:35:24;;;;;;;1.90;1.70;;;;;;;;;;5113150;28;20237;-66
2021/06/30 12:37:56;;;;;;;2.20;2.00;;;;;;;;;;5112625;28;20209;-61
2021/06/30 12:40:45;;;;;;;3.00;2.00;;;;;;;;;;5112895;28;20643;-67
2021/06/30 12:43:15;;;;;;;2.15;1.88;;;;;;;;;;5116483;27;20226;-66
2021/06/30 12:45:44;;;;;;;1.55;1.42;;;;;;;;;;5132897;27;20245;-66
2021/06/30 12:48:14;;;;;;;2.13;1.67;;;;;;;;;;5133284;27;20292;-63
2021/06/30 12:50:43;;;;;;;2.55;1.85;;;;;;;;;;5132975;27;20242;-63
2021/06/30 12:53:13;;;;;;;2.75;1.80;;;;;;;;;;5133472;27;20199;-63
2021/06/30 12:55:56;;;;;;;1.77;1.67;;;;;;;;;;5133055;27;20257;-62
2021/06/30 12:58:24;;;;;;;2.25;1.67;;;;;;;;;;5132280;27;20614;-62
2021/06/30 13:01:00;;;;;;;2.05;1.65;;;;;;;;;;5132407;27;20297;-64
2021/06/30 13:03:30;;;;;;;2.03;1.67;;;;;;;;;;5132452;27;20192;-64
2021/06/30 13:06:12;;;;;;;1.83;1.73;;;;;;;;;;5132615;27;20194;-64
2021/06/30 13:08:42;;;;;;;3.55;1.98;;;;;;;;;;5131985;27;20612;-64
2021/06/30 13:11:15;;;;;;;3.25;2.20;;;;;;;;;;5132442;27;20216;-65
2021/06/30 13:13:56;;;;;;;4.70;2.10;;;;;;;;;;5132329;27;20214;-66
2021/06/30 13:16:24;;;;;;;2.30;2.10;;;;;;;;;;5132049;27;20214;-65
2021/06/30 13:18:55;;;;;;;3.17;2.05;;;;;;;;;;5132166;27;20205;-65
2021/06/30 13:21:25;;;;;;;2.22;1.98;;;;;;;;;;5132159;27;20669;-66
2021/06/30 13:23:57;;;;;;;2.85;1.85;;;;;;;;;;5131604;27;20218;-64
2021/06/30 13:26:56;;;;;;;3.15;2.00;;;;;;;;;;5131796;27;20833;-67
2021/06/30 13:35:15;;;;;;;2.30;2.10;;;;;;;;;;5131398;27;20547;-67
2021/06/30 13:37:44;;;;;;;2.00;1.90;;;;;;;;;;5132004;27;20194;-68
2021/06/30 13:40:12;;;;;;;2.20;2.00;;;;;;;;;;5131368;27;20202;-64
2021/06/30 13:42:42;;;;;;;2.45;2.25;;;;;;;;;;5130506;27;20285;-65
2021/06/30 13:45:11;;;;;;;1.92;1.83;;;;;;;;;;5131189;27;20229;-67
2021/06/30 13:47:39;;;;;;;2.65;2.45;;;;;;;;;;5131772;27;20238;-68
2021/06/30 13:50:08;;;;;;;3.20;2.30;;;;;;;;;;5130928;27;20321;-69
2021/06/30 13:52:36;;;;;;;2.10;1.90;;;;;;;;;;5131493;27;20233;-68
2021/06/30 13:55:04;;;;;;;3.20;1.88;;;;;;;;;;5130074;27;20199;-68
2021/06/30 13:57:33;;;;;;;2.63;2.42;;;;;;;;;;5132779;27;20272;-68
2021/06/30 14:00:03;;;;;;;2.30;2.10;;;;;;;;;;5148863;27;20721;-68
2021/06/30 14:02:31;;;;;;;4.15;2.58;;;;;;;;;;5151816;27;20194;-69
2021/06/30 14:04:59;;;;;;;2.38;1.77;;;;;;;;;;5151909;27;20204;-68
2021/06/30 14:07:28;;;;;;;2.70;2.20;;;;;;;;;;5151638;27;20226;-67
2021/06/30 14:09:57;;;;;;;1.80;1.70;;;;;;;;;;5151557;27;20196;-67
2021/06/30 14:12:26;;;;;;;2.47;2.28;;;;;;;;;;5151805;27;20206;-68
2021/06/30 14:14:55;;;;;;;2.35;2.10;;;;;;;;;;5150398;27;20205;-68
2021/06/30 14:17:25;;;;;;;3.00;2.40;;;;;;;;;;5151221;27;20715;-65
2021/06/30 14:19:53;;;;;;;1.88;1.77;;;;;;;;;;5151658;27;20240;-64
2021/06/30 14:22:24;;;;;;;3.20;1.98;;;;;;;;;;5151678;27;20292;-67
2021/06/30 14:24:53;;;;;;;2.58;2.38;;;;;;;;;;5151303;27;20360;-67
2021/06/30 14:27:22;;;;;;;2.72;2.38;;;;;;;;;;5151423;27;20230;-64
2021/06/30 14:29:52;;;;;;;2.50;2.30;;;;;;;;;;5151527;27;20202;-64
2021/06/30 14:32:21;;;;;;;2.50;2.30;;;;;;;;;;5151710;27;20194;-64
2021/06/30 14:34:50;;;;;;;3.63;2.25;;;;;;;;;;5151330;27;20194;-64
2021/06/30 14:37:19;;;;;;;2.33;2.15;;;;;;;;;;5151857;27;20220;-65
2021/06/30 14:39:48;;;;;;;2.25;2.15;;;;;;;;;;5150592;27;20656;-65
2021/06/30 14:42:16;;;;;;;2.15;2.03;;;;;;;;;;5151174;27;20661;-64
2021/06/30 14:44:44;;;;;;;3.03;2.00;;;;;;;;;;5134275;27;20202;-64
2021/06/30 14:47:13;;;;;;;2.28;2.17;;;;;;;;;;5130481;27;20241;-65
2021/06/30 14:49:41;;;;;;;2.97;2.13;;;;;;;;;;5137331;27;20287;-64
2021/06/30 14:52:11;;;;;;;4.47;2.20;;;;;;;;;;5151009;27;20206;-65
2021/06/30 14:54:39;;;;;;;2.72;2.30;;;;;;;;;;5150060;27;20202;-65
2021/06/30 14:57:08;;;;;;;2.33;2.13;;;;;;;;;;5150780;27;20678;-65
2021/06/30 14:59:37;;;;;;;2.20;2.00;;;;;;;;;;5150264;27;20629;-64
2021/06/30 15:02:06;;;;;;;4.18;2.40;;;;;;;;;;5151064;27;20209;-61
2021/06/30 15:04:35;;;;;;;1.77;1.67;;;;;;;;;;5131548;27;20583;-61
2021/06/30 15:07:03;;;;;;;2.47;2.28;;;;;;;;;;5130307;28;20229;-61
2021/06/30 15:09:33;;;;;;;2.40;2.20;;;;;;;;;;5129348;28;20261;-63
2021/06/30 15:12:01;;;;;;;2.25;2.05;;;;;;;;;;5129789;28;20217;-60
2021/06/30 15:14:29;;;;;;;1.88;1.77;;;;;;;;;;5129351;28;20194;-65
2021/06/30 15:16:57;;;;;;;2.53;1.80;;;;;;;;;;5130060;28;20807;-64
2021/06/30 15:19:26;;;;;;;2.15;1.95;;;;;;;;;;5130033;28;20248;-64